createdAt,value
2019-05-12T00:00:34.952Z,98933.09
2019-05-12T00:03:04.597Z,98925.28
2019-05-12T00:05:34.220Z,98928.12
2019-05-12T00:08:03.937Z,98935.00
2019-05-12T00:10:33.692Z,98942.39
2019-05-12T00:13:03.332Z,98939.83
2019-05-12T00:15:32.957Z,98944.98
2019-05-12T00:18:02.584Z,98945.45
2019-05-12T00:20:32.223Z,98953.66
2019-05-12T00:23:03.477Z,98955.80
2019-05-12T00:25:33.116Z,98952.25
2019-05-12T00:28:02.803Z,98958.78
2019-05-12T00:30:39.803Z,98958.13
2019-05-12T00:33:09.729Z,98966.25
2019-05-12T00:35:39.980Z,98966.75
2019-05-12T00:38:09.624Z,98963.71
2019-05-12T00:40:39.778Z,98968.01
2019-05-12T00:43:10.526Z,98967.48
2019-05-12T00:45:41.197Z,98968.72
2019-05-12T00:48:10.826Z,98969.42
2019-05-12T00:50:40.518Z,98972.61
2019-05-12T00:53:10.246Z,98976.79
2019-05-12T00:55:39.936Z,98981.78
2019-05-12T00:58:10.155Z,98982.58
2019-05-12T01:00:41.117Z,98984.12
2019-05-12T01:03:11.459Z,98980.21
2019-05-12T01:05:41.078Z,98986.59
2019-05-12T01:08:10.697Z,98989.14
2019-05-12T01:10:40.407Z,98994.09
2019-05-12T01:13:10.099Z,98990.80
2019-05-12T01:15:39.914Z,98994.67
2019-05-12T01:18:09.875Z,98999.38
2019-05-12T01:20:39.697Z,98998.52
2019-05-12T01:23:09.330Z,98999.44
2019-05-12T01:25:39.918Z,99000.66
2019-05-12T01:28:10.167Z,99005.17
2019-05-12T01:30:39.814Z,99004.45
2019-05-12T01:33:09.506Z,99010.31
2019-05-12T01:35:39.574Z,99019.16
2019-05-12T01:38:09.323Z,99021.58
2019-05-12T01:40:39.775Z,99022.00
2019-05-12T01:43:09.829Z,99026.29
2019-05-12T01:45:39.531Z,99030.20
2019-05-12T01:48:09.752Z,99036.07
2019-05-12T01:50:39.544Z,99027.80
2019-05-12T01:53:09.193Z,99035.38
2019-05-12T01:55:39.343Z,99033.58
2019-05-12T01:58:09.578Z,99042.58
2019-05-12T02:00:39.464Z,99046.00
2019-05-12T02:03:09.751Z,99056.77
2019-05-12T02:05:41.325Z,99055.56
2019-05-12T02:08:12.593Z,99058.75
2019-05-12T02:10:42.235Z,99069.14
2019-05-12T02:13:11.858Z,99066.66
2019-05-12T02:15:41.945Z,99078.47
2019-05-12T02:18:11.578Z,99073.77
2019-05-12T02:20:41.224Z,99087.44
2019-05-12T02:23:10.927Z,99084.98
2019-05-12T02:25:40.575Z,99087.14
2019-05-12T02:28:10.197Z,99082.48
2019-05-12T02:30:41.318Z,99097.33
2019-05-12T02:33:11.192Z,99100.00
2019-05-12T02:35:40.844Z,99101.86
2019-05-12T02:38:10.469Z,99104.53
2019-05-12T02:40:40.119Z,99104.59
2019-05-12T02:43:09.813Z,99108.91
2019-05-12T02:45:39.477Z,99112.98
2019-05-12T02:48:09.098Z,99119.91
2019-05-12T02:50:38.938Z,99121.06
2019-05-12T02:53:08.666Z,99132.45
2019-05-12T02:55:39.398Z,99136.52
2019-05-12T02:58:14.991Z,99142.69
2019-05-12T03:00:45.555Z,99151.53
2019-05-12T03:03:17.267Z,99158.73
2019-05-12T03:05:48.303Z,99163.63
2019-05-12T03:08:21.468Z,99166.30
2019-05-12T03:10:54.844Z,99169.05
2019-05-12T03:13:25.452Z,99163.94
2019-05-12T03:15:55.245Z,99168.16
2019-05-12T03:18:25.452Z,99177.72
2019-05-12T03:20:55.359Z,99182.41
2019-05-12T03:23:25.130Z,99181.62
2019-05-12T03:25:54.972Z,99186.53
2019-05-12T03:28:25.709Z,99198.77
2019-05-12T03:30:57.448Z,99195.95
2019-05-12T03:33:34.340Z,99197.05
2019-05-12T03:36:00.676Z,99197.22
2019-05-12T03:38:29.844Z,99205.30
2019-05-12T03:40:59.500Z,99210.64
2019-05-12T03:43:29.119Z,99210.36
2019-05-12T03:45:58.790Z,99221.13
2019-05-12T03:48:28.420Z,99226.98
2019-05-12T03:50:58.103Z,99225.72
2019-05-12T03:53:27.772Z,99232.70
2019-05-12T03:55:57.397Z,99235.14
2019-05-12T03:58:27.032Z,99239.67
2019-05-12T04:00:56.732Z,99242.80
2019-05-12T04:03:26.382Z,99242.73
2019-05-12T04:05:56.013Z,99249.78
2019-05-12T04:08:25.900Z,99249.16
2019-05-12T04:10:55.526Z,99253.11
2019-05-12T04:13:26.577Z,99250.95
2019-05-12T04:15:56.507Z,99255.70
2019-05-12T04:18:26.133Z,99260.39
2019-05-12T04:20:55.785Z,99262.92
2019-05-12T04:23:25.554Z,99268.92
2019-05-12T04:26:06.978Z,99274.95
2019-05-12T04:28:26.894Z,99280.37
2019-05-12T04:30:56.549Z,99283.31
2019-05-12T04:33:26.171Z,99291.48
2019-05-12T04:35:55.906Z,99282.36
2019-05-12T04:38:25.531Z,99292.87
2019-05-12T04:40:56.230Z,99289.04
2019-05-12T04:43:25.862Z,99292.06
2019-05-12T04:45:55.510Z,99296.33
2019-05-12T04:48:25.992Z,99306.33
2019-05-12T04:50:55.848Z,99306.25
2019-05-12T04:53:25.617Z,99303.81
2019-05-12T04:56:07.365Z,99319.48
2019-05-12T04:58:26.839Z,99316.58
2019-05-12T05:00:56.925Z,99314.78
2019-05-12T05:03:26.588Z,99314.34
2019-05-12T05:05:56.298Z,99329.27
2019-05-12T05:08:25.946Z,99326.85
2019-05-12T05:10:55.632Z,99324.38
2019-05-12T05:13:25.785Z,99332.39
2019-05-12T05:15:55.486Z,99337.97
2019-05-12T05:18:25.159Z,99342.06
2019-05-12T05:20:54.848Z,99347.33
2019-05-12T05:23:24.543Z,99351.41
2019-05-12T05:25:54.260Z,99356.66
2019-05-12T05:28:23.881Z,99352.47
2019-05-12T05:30:53.645Z,99361.46
2019-05-12T05:33:23.959Z,99369.25
2019-05-12T05:35:54.362Z,99382.09
2019-05-12T05:38:24.104Z,99376.83
2019-05-12T05:40:54.209Z,99386.84
2019-05-12T05:43:24.289Z,99383.97
2019-05-12T05:46:02.080Z,99398.37
2019-05-12T05:48:25.463Z,99401.13
2019-05-12T05:50:55.223Z,99397.06
2019-05-12T05:53:24.863Z,99398.28
2019-05-12T05:55:56.263Z,99403.22
2019-05-12T05:58:26.336Z,99401.45
2019-05-12T06:01:03.004Z,99409.47
2019-05-12T06:03:28.066Z,99417.72
2019-05-12T06:06:04.811Z,99416.55
2019-05-12T06:08:29.465Z,99417.14
2019-05-12T06:10:59.168Z,99426.88
2019-05-12T06:13:31.958Z,99423.86
2019-05-12T06:16:00.168Z,99429.32
2019-05-12T06:18:29.791Z,99433.84
2019-05-12T06:20:59.437Z,99432.81
2019-05-12T06:23:34.027Z,99433.02
2019-05-12T06:26:00.431Z,99435.57
2019-05-12T06:28:31.088Z,99439.27
2019-05-12T06:31:01.569Z,99439.81
2019-05-12T06:33:34.004Z,99449.24
2019-05-12T06:36:03.761Z,99455.30
2019-05-12T06:38:37.162Z,99460.95
2019-05-12T06:41:06.839Z,99470.30
2019-05-12T06:43:39.579Z,99468.73
2019-05-12T06:46:11.752Z,99467.99
2019-05-12T06:48:42.268Z,99473.05
2019-05-12T06:51:15.350Z,99469.72
2019-05-12T06:53:44.194Z,99468.90
2019-05-12T06:56:15.425Z,99470.83
2019-05-12T06:58:45.939Z,99484.66
2019-05-12T07:01:19.363Z,99480.89
2019-05-12T07:03:47.069Z,99482.73
2019-05-12T07:06:19.787Z,99484.50
2019-05-12T07:09:01.279Z,99485.42
2019-05-12T07:11:19.440Z,99495.41
2019-05-12T07:14:01.257Z,99482.39
2019-05-12T07:16:26.770Z,99487.11
2019-05-12T07:18:54.166Z,99499.38
2019-05-12T07:21:26.539Z,99498.71
2019-05-12T07:23:54.882Z,99503.94
2019-05-12T07:26:24.599Z,99504.06
2019-05-12T07:28:54.509Z,99508.23
2019-05-12T07:31:24.224Z,99505.98
2019-05-12T07:33:54.293Z,99505.28
2019-05-12T07:36:24.734Z,99505.95
2019-05-12T07:39:04.067Z,99508.22
2019-05-12T07:41:30.799Z,99509.38
2019-05-12T07:44:03.599Z,99513.61
2019-05-12T07:46:34.267Z,99527.14
2019-05-12T07:49:04.162Z,99531.89
2019-05-12T07:51:36.339Z,99536.48
2019-05-12T07:54:05.300Z,99544.94
2019-05-12T07:56:35.774Z,99549.52
2019-05-12T07:59:05.881Z,99554.95
2019-05-12T08:01:44.749Z,99550.55
2019-05-12T08:04:07.214Z,99557.03
2019-05-12T08:06:41.634Z,99559.28
2019-05-12T08:09:08.824Z,99558.73
2019-05-12T08:11:39.000Z,99561.95
2019-05-12T08:14:13.678Z,99555.94
2019-05-12T08:16:40.180Z,99554.09
2019-05-12T08:19:14.930Z,99553.38
2019-05-12T08:21:46.553Z,99550.94
2019-05-12T08:24:14.326Z,99550.66
2019-05-12T08:26:44.027Z,99549.63
2019-05-12T08:29:17.063Z,99556.55
2019-05-12T08:31:45.190Z,99560.33
2019-05-12T08:34:14.899Z,99555.55
2019-05-12T08:36:52.956Z,99550.63
2019-05-12T08:39:21.053Z,99550.36
2019-05-12T08:41:47.432Z,99555.15
2019-05-12T08:44:17.583Z,99559.32
2019-05-12T08:46:51.806Z,99558.35
2019-05-12T08:49:18.887Z,99560.05
2019-05-12T08:51:49.480Z,99561.17
2019-05-12T08:54:19.882Z,99569.88
2019-05-12T08:56:51.040Z,99564.22
2019-05-12T08:59:26.505Z,99566.63
2019-05-12T09:01:54.074Z,99567.07
2019-05-12T09:04:24.765Z,99570.58
2019-05-12T09:06:56.395Z,99570.16
2019-05-12T09:09:26.643Z,99572.47
2019-05-12T09:11:56.352Z,99582.81
2019-05-12T09:14:26.242Z,99582.09
2019-05-12T09:17:05.647Z,99591.44
2019-05-12T09:19:28.106Z,99595.84
2019-05-12T09:21:57.978Z,99601.41
2019-05-12T09:24:27.721Z,99606.77
2019-05-12T09:26:59.024Z,99595.33
2019-05-12T09:29:28.821Z,99593.81
2019-05-12T09:31:59.122Z,99601.12
2019-05-12T09:34:29.921Z,99609.53
2019-05-12T09:37:01.068Z,99603.22
2019-05-12T09:39:33.979Z,99598.77
2019-05-12T09:42:03.709Z,99595.03
2019-05-12T09:44:34.178Z,99602.13
2019-05-12T09:47:05.021Z,99596.84
2019-05-12T09:49:39.186Z,99602.58
2019-05-12T09:52:06.752Z,99602.64
2019-05-12T09:54:40.883Z,99592.30
2019-05-12T09:57:07.847Z,99598.08
2019-05-12T09:59:37.495Z,99604.09
2019-05-12T10:02:10.555Z,99619.45
2019-05-12T10:04:38.819Z,99623.92
2019-05-12T10:07:08.706Z,99612.40
2019-05-12T10:09:38.325Z,99616.51
2019-05-12T10:12:08.036Z,99603.67
2019-05-12T10:14:40.798Z,99613.98
2019-05-12T10:17:09.235Z,99613.98
2019-05-12T10:19:38.862Z,99618.22
2019-05-12T10:22:08.577Z,99613.59
2019-05-12T10:24:41.403Z,99623.23
2019-05-12T10:27:09.589Z,99619.55
2019-05-12T10:29:39.224Z,99620.89
2019-05-12T10:32:10.457Z,99614.01
2019-05-12T10:34:40.533Z,99615.27
2019-05-12T10:37:10.167Z,99611.16
2019-05-12T10:39:39.811Z,99614.26
2019-05-12T10:42:09.444Z,99621.22
2019-05-12T10:44:40.882Z,99625.59
2019-05-12T10:47:10.581Z,99622.98
2019-05-12T10:49:40.229Z,99617.77
2019-05-12T10:52:09.853Z,99628.73
2019-05-12T10:54:39.587Z,99626.06
2019-05-12T10:57:09.283Z,99633.17
2019-05-12T10:59:45.216Z,99629.70
2019-05-12T11:02:10.297Z,99635.16
2019-05-12T11:04:41.217Z,99632.59
2019-05-12T11:07:13.441Z,99630.34
2019-05-12T11:09:43.892Z,99631.66
2019-05-12T11:12:13.937Z,99621.92
2019-05-12T11:14:44.020Z,99629.88
2019-05-12T11:17:14.271Z,99630.09
2019-05-12T11:19:47.087Z,99639.61
2019-05-12T11:22:15.422Z,99651.14
2019-05-12T11:24:45.186Z,99647.76
2019-05-12T11:27:15.000Z,99650.53
2019-05-12T11:29:48.690Z,99657.23
2019-05-12T11:32:17.739Z,99664.19
2019-05-12T11:34:47.710Z,99667.14
2019-05-12T11:37:17.330Z,99658.70
2019-05-12T11:39:47.659Z,99665.34
2019-05-12T11:42:17.491Z,99671.08
2019-05-12T11:44:47.211Z,99668.27
2019-05-12T11:47:23.821Z,99676.92
2019-05-12T11:49:48.368Z,99678.64
2019-05-12T11:52:19.404Z,99677.37
2019-05-12T11:54:51.243Z,99682.73
2019-05-12T11:57:28.237Z,99691.08
2019-05-12T12:00:02.243Z,99684.52
2019-05-12T12:02:28.841Z,99685.17
2019-05-12T12:04:56.534Z,99690.42
2019-05-12T12:07:26.251Z,99700.30
2019-05-12T12:09:59.259Z,99693.16
2019-05-12T12:12:27.423Z,99701.28
2019-05-12T12:14:57.032Z,99695.98
2019-05-12T12:17:30.916Z,99697.19
2019-05-12T12:19:58.119Z,99691.22
2019-05-12T12:22:29.772Z,99688.75
2019-05-12T12:25:03.106Z,99689.98
2019-05-12T12:27:30.670Z,99692.11
2019-05-12T12:30:15.333Z,99685.88
2019-05-12T12:32:33.807Z,99694.17
2019-05-12T12:35:07.353Z,99691.70
2019-05-12T12:37:35.568Z,99691.42
2019-05-12T12:40:06.647Z,99693.34
2019-05-12T12:42:43.685Z,99698.27
2019-05-12T12:45:16.246Z,99699.94
2019-05-12T12:47:49.221Z,99705.61
2019-05-12T12:50:20.210Z,99705.78
2019-05-12T12:52:49.032Z,99702.27
2019-05-12T12:55:18.882Z,99710.33
2019-05-12T12:57:50.732Z,99710.52
2019-05-12T13:00:29.730Z,99702.08
2019-05-12T13:02:53.281Z,99704.96
2019-05-12T13:05:23.989Z,99699.83
2019-05-12T13:07:53.706Z,99700.27
2019-05-12T13:10:24.776Z,99694.63
2019-05-12T13:12:56.554Z,99695.54
2019-05-12T13:15:26.120Z,99704.39
2019-05-12T13:17:55.787Z,99705.14
2019-05-12T13:20:25.491Z,99709.69
2019-05-12T13:22:55.108Z,99711.28
2019-05-12T13:25:24.825Z,99715.28
2019-05-12T13:27:54.457Z,99714.22
2019-05-12T13:30:24.425Z,99706.00
2019-05-12T13:32:54.169Z,99695.48
2019-05-12T13:35:24.096Z,99688.73
2019-05-12T13:37:56.361Z,99685.08
2019-05-12T13:40:29.779Z,99686.08
2019-05-12T13:42:58.436Z,99681.28
2019-05-12T13:45:28.600Z,99693.50
2019-05-12T13:47:58.323Z,99682.98
2019-05-12T13:50:28.034Z,99684.61
2019-05-12T13:53:01.058Z,99693.52
2019-05-12T13:55:30.650Z,99684.56
2019-05-12T13:58:00.299Z,99685.85
2019-05-12T14:00:29.941Z,99693.98
2019-05-12T14:03:08.181Z,99689.13
2019-05-12T14:05:33.153Z,99702.34
2019-05-12T14:08:03.926Z,99692.48
2019-05-12T14:10:37.365Z,99676.64
2019-05-12T14:13:04.984Z,99670.52
2019-05-12T14:15:35.114Z,99665.44
2019-05-12T14:18:04.883Z,99662.53
2019-05-12T14:20:34.606Z,99675.23
2019-05-12T14:23:04.313Z,99676.40
2019-05-12T14:25:34.999Z,99678.59
2019-05-12T14:28:08.081Z,99675.61
2019-05-12T14:30:36.167Z,99678.08
2019-05-12T14:33:05.935Z,99675.66
2019-05-12T14:35:40.821Z,99670.70
2019-05-12T14:38:06.925Z,99671.69
2019-05-12T14:40:36.597Z,99681.99
2019-05-12T14:43:10.421Z,99676.28
2019-05-12T14:45:37.647Z,99679.97
2019-05-12T14:48:09.194Z,99682.08
2019-05-12T14:50:38.794Z,99684.47
2019-05-12T14:53:08.506Z,99686.34
2019-05-12T14:55:38.138Z,99681.81
2019-05-12T14:58:09.195Z,99682.48
2019-05-12T15:00:39.330Z,99677.08
2019-05-12T15:03:13.814Z,99674.44
2019-05-12T15:05:47.008Z,99677.50
2019-05-12T15:08:14.227Z,99683.56
2019-05-12T15:10:44.668Z,99672.83
2019-05-12T15:13:14.381Z,99673.51
2019-05-12T15:15:44.165Z,99670.49
2019-05-12T15:18:16.056Z,99687.11
2019-05-12T15:20:49.905Z,99684.70
2019-05-12T15:23:16.586Z,99684.70
2019-05-12T15:25:46.207Z,99685.53
2019-05-12T15:28:15.895Z,99691.52
2019-05-12T15:30:45.549Z,99691.16
2019-05-12T15:33:15.301Z,99693.72
2019-05-12T15:35:44.981Z,99694.33
2019-05-12T15:38:16.723Z,99686.81
2019-05-12T15:40:46.518Z,99687.00
2019-05-12T15:43:16.160Z,99683.61
2019-05-12T15:45:49.006Z,99689.34
2019-05-12T15:48:18.608Z,99684.66
2019-05-12T15:50:48.359Z,99696.31
2019-05-12T15:53:22.336Z,99695.73
2019-05-12T15:55:50.137Z,99693.51
2019-05-12T15:58:19.920Z,99697.20
2019-05-12T16:00:49.548Z,99702.20
2019-05-12T16:03:19.194Z,99704.64
2019-05-12T16:05:48.893Z,99706.04
2019-05-12T16:08:18.527Z,99713.27
2019-05-12T16:10:48.161Z,99713.28
2019-05-12T16:13:17.806Z,99718.55
2019-05-12T16:15:49.322Z,99729.45
2019-05-12T16:18:18.895Z,99721.41
2019-05-12T16:20:48.511Z,99719.21
2019-05-12T16:23:28.007Z,99721.67
2019-05-12T16:25:49.573Z,99716.97
2019-05-12T16:28:23.452Z,99721.53
2019-05-12T16:30:50.639Z,99715.47
2019-05-12T16:33:22.102Z,99715.53
2019-05-12T16:35:54.390Z,99719.00
2019-05-12T16:38:23.623Z,99721.78
2019-05-12T16:40:53.889Z,99715.74
2019-05-12T16:43:23.982Z,99719.13
2019-05-12T16:45:53.888Z,99715.88
2019-05-12T16:48:30.366Z,99715.86
2019-05-12T16:50:55.103Z,99715.85
2019-05-12T16:53:27.839Z,99718.82
2019-05-12T16:55:56.080Z,99725.52
2019-05-12T16:58:33.407Z,99726.70
2019-05-12T17:00:57.078Z,99725.67
2019-05-12T17:03:26.728Z,99732.52
2019-05-12T17:05:57.906Z,99733.17
2019-05-12T17:08:27.747Z,99744.38
2019-05-12T17:11:15.121Z,99740.33
2019-05-12T17:13:28.840Z,99740.75
2019-05-12T17:16:00.155Z,99743.59
2019-05-12T17:18:30.110Z,99748.96
2019-05-12T17:20:59.817Z,99755.92
2019-05-12T17:23:29.503Z,99756.92
2019-05-12T17:25:59.155Z,99757.23
2019-05-12T17:28:28.783Z,99758.19
2019-05-12T17:30:58.433Z,99763.53
2019-05-12T17:33:28.126Z,99763.51
2019-05-12T17:36:03.095Z,99767.67
2019-05-12T17:38:30.196Z,99768.43
2019-05-12T17:41:00.836Z,99771.08
2019-05-12T17:43:30.674Z,99778.41
2019-05-12T17:46:03.641Z,99780.70
2019-05-12T17:48:31.752Z,99782.58
2019-05-12T17:51:03.302Z,99793.02
2019-05-12T17:53:36.065Z,99794.41
2019-05-12T17:56:04.813Z,99793.44
2019-05-12T17:58:36.116Z,99797.83
2019-05-12T18:01:06.204Z,99797.47
2019-05-12T18:03:39.360Z,99802.95
2019-05-12T18:06:07.285Z,99805.58
2019-05-12T18:08:38.768Z,99811.75
2019-05-12T18:11:11.477Z,99814.83
2019-05-12T18:13:40.152Z,99818.95
2019-05-12T18:16:11.433Z,99823.08
2019-05-12T18:18:43.414Z,99825.14
2019-05-12T18:21:21.118Z,99835.59
2019-05-12T18:23:44.205Z,99827.98
2019-05-12T18:26:16.082Z,99831.78
2019-05-12T18:28:45.339Z,99831.84
2019-05-12T18:31:15.072Z,99834.27
2019-05-12T18:33:52.114Z,99832.25
2019-05-12T18:36:16.138Z,99837.11
2019-05-12T18:38:45.843Z,99839.73
2019-05-12T18:41:15.570Z,99845.52
2019-05-12T18:43:45.551Z,99845.57
2019-05-12T18:46:15.189Z,99846.73
2019-05-12T18:48:44.830Z,99852.69
2019-05-12T18:51:17.192Z,99846.30
2019-05-12T18:53:45.896Z,99853.02
2019-05-12T18:56:21.364Z,99859.55
2019-05-12T18:58:46.943Z,99854.97
2019-05-12T19:01:16.587Z,99858.20
2019-05-12T19:03:50.705Z,99862.38
2019-05-12T19:06:17.717Z,99869.09
2019-05-12T19:08:47.548Z,99869.09
2019-05-12T19:11:22.506Z,99872.09
2019-05-12T19:13:51.763Z,99867.80
2019-05-12T19:16:20.162Z,99871.39
2019-05-12T19:18:49.785Z,99871.22
2019-05-12T19:21:20.202Z,99876.00
2019-05-12T19:23:50.052Z,99874.22
2019-05-12T19:26:19.675Z,99886.10
2019-05-12T19:28:52.841Z,99885.20
2019-05-12T19:31:20.688Z,99891.71
2019-05-12T19:34:10.335Z,99896.25
2019-05-12T19:36:23.954Z,99900.56
2019-05-12T19:38:54.539Z,99901.94
2019-05-12T19:41:24.637Z,99905.93
2019-05-12T19:43:54.540Z,99907.36
2019-05-12T19:46:24.295Z,99910.35
2019-05-12T19:48:54.153Z,99910.85
2019-05-12T19:51:27.745Z,99912.81
2019-05-12T19:53:55.299Z,99914.89
2019-05-12T19:56:34.588Z,99916.98
2019-05-12T19:58:56.277Z,99915.72
2019-05-12T20:01:32.189Z,99917.19
2019-05-12T20:03:58.098Z,99917.13
2019-05-12T20:06:27.883Z,99924.95
2019-05-12T20:09:06.146Z,99926.14
2019-05-12T20:11:31.305Z,99926.44
2019-05-12T20:14:00.228Z,99923.55
2019-05-12T20:16:30.611Z,99929.99
2019-05-12T20:19:00.388Z,99929.32
2019-05-12T20:21:30.090Z,99930.82
2019-05-12T20:23:59.735Z,99929.68
2019-05-12T20:26:33.204Z,99936.43
2019-05-12T20:29:00.815Z,99939.86
2019-05-12T20:31:35.444Z,99940.41
2019-05-12T20:34:10.745Z,99934.77
2019-05-12T20:36:33.565Z,99938.88
2019-05-12T20:39:10.111Z,99941.67
2019-05-12T20:41:36.343Z,99948.79
2019-05-12T20:44:09.810Z,99950.03
2019-05-12T20:46:37.418Z,99951.80
2019-05-12T20:49:11.857Z,99956.48
2019-05-12T20:51:38.401Z,99952.58
2019-05-12T20:54:16.107Z,99956.53
2019-05-12T20:56:39.415Z,99958.83
2019-05-12T20:59:13.860Z,99963.28
2019-05-12T21:01:40.455Z,99958.84
2019-05-12T21:04:10.145Z,99958.81
2019-05-12T21:06:41.912Z,99956.33
2019-05-12T21:09:11.137Z,99957.13
2019-05-12T21:11:41.074Z,99958.38
2019-05-12T21:14:12.295Z,99958.02
2019-05-12T21:16:44.475Z,99956.44
2019-05-12T21:19:14.323Z,99954.08
2019-05-12T21:21:44.530Z,99956.36
2019-05-12T21:24:14.426Z,99955.51
2019-05-12T21:26:44.244Z,99957.38
2019-05-12T21:29:14.085Z,99953.76
2019-05-12T21:31:45.316Z,99959.72
2019-05-12T21:34:21.284Z,99954.81
2019-05-12T21:36:46.409Z,99958.14
2019-05-12T21:39:16.102Z,99967.06
2019-05-12T21:41:50.635Z,99966.52
2019-05-12T21:44:17.190Z,99966.89
2019-05-12T21:46:57.456Z,99959.39
2019-05-12T21:49:18.225Z,99970.45
2019-05-12T21:51:50.469Z,99967.31
2019-05-12T21:54:19.231Z,99965.77
2019-05-12T21:56:49.535Z,99971.94
2019-05-12T21:59:19.240Z,99973.29
2019-05-12T22:01:49.117Z,99970.51
2019-05-12T22:04:18.877Z,99967.66
2019-05-12T22:06:51.248Z,99971.41
2019-05-12T22:09:20.000Z,99981.00
2019-05-12T22:11:50.986Z,99979.06
2019-05-12T22:14:21.059Z,99982.10
2019-05-12T22:16:52.495Z,99981.64
2019-05-12T22:19:22.118Z,99984.60
2019-05-12T22:21:53.661Z,99988.84
2019-05-12T22:24:27.610Z,99992.27
2019-05-12T22:26:54.553Z,99995.88
2019-05-12T22:29:29.647Z,99996.41
2019-05-12T22:31:55.740Z,100002.05
2019-05-12T22:34:27.473Z,100004.67
2019-05-12T22:36:59.197Z,100014.05
2019-05-12T22:39:32.808Z,100016.81
2019-05-12T22:41:59.680Z,100012.99
2019-05-12T22:44:29.331Z,100011.97
2019-05-12T22:47:04.268Z,100014.55
2019-05-12T22:49:30.343Z,100011.37
2019-05-12T22:52:02.865Z,100013.59
2019-05-12T22:54:33.564Z,100015.38
2019-05-12T22:57:04.026Z,100017.74
2019-05-12T22:59:40.330Z,100017.87
2019-05-12T23:02:05.561Z,100017.04
2019-05-12T23:04:40.018Z,100016.72
2019-05-12T23:07:06.700Z,100023.00
2019-05-12T23:09:36.329Z,100025.90
2019-05-12T23:12:09.733Z,100027.88
2019-05-12T23:14:37.470Z,100022.52
2019-05-12T23:17:07.566Z,100027.58
2019-05-12T23:19:42.996Z,100024.91
2019-05-12T23:22:08.658Z,100028.72
2019-05-12T23:24:40.734Z,100030.97
2019-05-12T23:27:09.795Z,100023.90
2019-05-12T23:29:39.523Z,100032.32
2019-05-12T23:32:12.029Z,100026.97
2019-05-12T23:34:45.065Z,100024.30
2019-05-12T23:37:14.015Z,100025.31
2019-05-12T23:39:44.245Z,100029.12
2019-05-12T23:42:14.056Z,100024.18
2019-05-12T23:44:44.320Z,100023.47
2019-05-12T23:47:14.025Z,100019.16
2019-05-12T23:49:44.479Z,100020.80
2019-05-12T23:52:14.258Z,100025.22
2019-05-12T23:54:44.510Z,100025.22
2019-05-12T23:57:15.748Z,100021.82
2019-05-12T23:59:45.655Z,100022.05
